Time;durP1;ratioP1;P1;durP2;ratioP2;P2;SDS_P1;SDS_P2;PMS_P1;PMS_P2;Temp;Humidity;BMP_temperature;BMP_pressure;BME280_temperature;BME280_humidity;BME280_pressure;Samples;Min_cycle;Max_cycle;Signal;HPM_P1;HPM_P2
2021/01/09 00:00:26;;;;;;;19.13;10.32;;;-0.70;99.90;;;;;;5050780;28;20044;-78
2021/01/09 00:02:57;;;;;;;16.33;9.45;;;-0.70;99.90;;;;;;5050880;28;20041;-78
2021/01/09 00:05:28;;;;;;;14.68;8.68;;;-0.70;99.90;;;;;;5050539;28;20044;-78
2021/01/09 00:08:00;;;;;;;16.40;8.95;;;-0.70;99.90;;;;;;5050648;28;20041;-78
2021/01/09 00:10:31;;;;;;;18.90;10.25;;;-0.70;99.90;;;;;;5049801;28;20047;-77
2021/01/09 00:13:03;;;;;;;16.35;9.90;;;-0.70;99.90;;;;;;5050811;28;20406;-78
2021/01/09 00:15:34;;;;;;;15.52;8.82;;;-0.80;99.90;;;;;;5071955;28;20044;-78
2021/01/09 00:18:05;;;;;;;13.75;8.52;;;-0.80;99.90;;;;;;5065454;28;20049;-78
2021/01/09 00:20:36;;;;;;;19.58;8.82;;;-0.80;99.90;;;;;;5068355;28;20045;-78
2021/01/09 00:23:07;;;;;;;22.25;10.70;;;-0.80;99.90;;;;;;5072962;28;20032;-78
2021/01/09 00:25:39;;;;;;;16.00;9.18;;;-0.80;99.90;;;;;;5043291;28;20044;-78
2021/01/09 00:28:10;;;;;;;15.80;8.65;;;-0.80;99.90;;;;;;5062965;28;20048;-78
2021/01/09 00:30:41;;;;;;;16.67;10.23;;;-0.80;99.90;;;;;;5084593;28;20047;-78
2021/01/09 00:33:12;;;;;;;19.40;11.70;;;-0.80;99.90;;;;;;5058725;28;20047;-78
2021/01/09 00:35:43;;;;;;;21.10;11.18;;;-0.90;99.90;;;;;;5088175;28;20051;-78
2021/01/09 00:38:14;;;;;;;18.88;10.65;;;-0.90;99.90;;;;;;5063681;28;20067;-78
2021/01/09 00:40:46;;;;;;;19.45;10.77;;;-1.00;99.90;;;;;;5060111;28;20045;-78
2021/01/09 00:43:17;;;;;;;20.67;11.30;;;-0.90;99.90;;;;;;5054281;28;20083;-78
2021/01/09 00:45:49;;;;;;;20.05;10.63;;;-1.00;99.90;;;;;;5061120;28;20044;-78
2021/01/09 00:48:20;;;;;;;19.48;10.30;;;-1.00;99.90;;;;;;5071140;28;20047;-78
2021/01/09 00:50:51;;;;;;;21.80;11.93;;;-1.00;99.90;;;;;;5053739;28;20055;-77
2021/01/09 00:53:22;;;;;;;18.77;10.20;;;-1.00;99.90;;;;;;5070138;28;20047;-78
2021/01/09 00:55:53;;;;;;;19.35;11.25;;;-1.10;99.90;;;;;;5070484;28;20040;-78
2021/01/09 00:58:25;;;;;;;19.60;10.90;;;-1.10;99.90;;;;;;5053989;28;20049;-78
2021/01/09 01:00:56;;;;;;;19.27;11.15;;;-1.10;99.90;;;;;;5069806;28;20407;-78
2021/01/09 01:03:28;;;;;;;25.45;11.32;;;-1.10;99.90;;;;;;5070040;28;20059;-78
2021/01/09 01:05:59;;;;;;;18.10;11.27;;;-1.10;99.90;;;;;;5053769;28;20041;-78
2021/01/09 01:08:30;;;;;;;21.88;11.52;;;-1.10;99.90;;;;;;5069543;28;20135;-78
2021/01/09 01:11:04;;;;;;;21.70;11.05;;;-1.00;99.90;;;;;;5069834;28;20056;-78
2021/01/09 01:13:35;;;;;;;21.00;11.50;;;-1.00;99.90;;;;;;5053992;28;20139;-78
2021/01/09 01:16:06;;;;;;;20.15;10.82;;;-1.10;99.90;;;;;;5070137;28;20159;-78
2021/01/09 01:18:38;;;;;;;22.83;11.65;;;-1.10;99.90;;;;;;5053740;28;20525;-78
2021/01/09 01:21:09;;;;;;;17.27;10.13;;;-1.10;99.90;;;;;;5069678;28;20036;-78
2021/01/09 01:23:40;;;;;;;20.98;11.05;;;-1.10;99.90;;;;;;5054052;28;20048;-78
2021/01/09 01:26:12;;;;;;;21.05;11.32;;;-1.10;99.90;;;;;;5069909;28;20406;-78
2021/01/09 01:28:43;;;;;;;20.02;11.07;;;-1.10;99.90;;;;;;5069658;28;20400;-78
2021/01/09 01:31:14;;;;;;;24.13;11.60;;;-1.10;99.90;;;;;;5054057;28;20496;-78
2021/01/09 01:33:45;;;;;;;23.20;11.88;;;-1.00;99.90;;;;;;5053871;28;20495;-78
2021/01/09 01:36:18;;;;;;;21.05;12.50;;;-1.10;99.90;;;;;;5069824;28;20036;-78
2021/01/09 01:38:49;;;;;;;22.90;11.35;;;-1.10;99.90;;;;;;5053089;28;20049;-78
2021/01/09 01:41:20;;;;;;;22.45;11.60;;;-1.10;99.90;;;;;;5053347;28;20124;-78
2021/01/09 01:43:52;;;;;;;19.95;10.73;;;-1.10;99.90;;;;;;5053167;28;20131;-78
2021/01/09 01:46:23;;;;;;;19.92;11.43;;;-1.10;99.90;;;;;;5053258;28;20117;-78
2021/01/09 01:48:55;;;;;;;22.35;11.60;;;-1.10;99.90;;;;;;5068989;28;20491;-78
2021/01/09 01:51:26;;;;;;;22.02;11.98;;;-1.10;99.90;;;;;;5053344;28;20051;-78
2021/01/09 01:53:57;;;;;;;20.92;11.65;;;-1.10;99.90;;;;;;5053066;28;20481;-78
2021/01/09 01:56:29;;;;;;;23.73;13.32;;;-1.10;99.90;;;;;;5053640;28;20041;-78
2021/01/09 01:58:55;;;;;;;22.15;11.43;;;-1.10;99.90;;;;;;5052215;28;20083;-78
2021/01/09 02:01:22;;;;;;;19.92;11.48;;;-1.10;99.90;;;;;;5050267;28;20075;-78
2021/01/09 02:03:53;;;;;;;19.52;10.48;;;-1.10;99.90;;;;;;5068360;28;20470;-78
2021/01/09 02:06:28;;;;;;;23.23;12.35;;;-1.10;99.90;;;;;;5052696;28;20549;-78
2021/01/09 02:09:07;;;;;;;21.27;12.05;;;-1.10;99.90;;;;;;5052735;28;20044;-78
2021/01/09 02:11:41;;;;;;;19.13;11.18;;;-1.10;99.90;;;;;;5069758;28;20127;-78
2021/01/09 02:14:31;;;;;;;21.35;11.88;;;-1.10;99.90;;;;;;5067747;28;20118;-78
2021/01/09 02:17:03;;;;;;;22.45;10.88;;;-1.10;99.90;;;;;;5066935;28;20053;-78
2021/01/09 02:19:39;;;;;;;22.80;11.55;;;-1.10;99.90;;;;;;5069676;28;20515;-79
2021/01/09 02:22:15;;;;;;;19.30;11.57;;;-1.10;99.90;;;;;;5052573;28;20053;-78
2021/01/09 02:24:47;;;;;;;21.33;12.13;;;-1.10;99.90;;;;;;5068404;28;20480;-78
2021/01/09 02:27:18;;;;;;;17.92;10.27;;;-1.00;99.90;;;;;;5052457;28;20051;-78
2021/01/09 02:30:00;;;;;;;20.55;11.45;;;-1.10;99.90;;;;;;5068231;28;20040;-78
2021/01/09 02:32:45;;;;;;;20.48;11.20;;;-1.10;99.90;;;;;;5069717;28;20063;-78
2021/01/09 02:35:20;;;;;;;21.58;12.07;;;-1.00;99.90;;;;;;5056740;28;20411;-78
2021/01/09 02:37:47;;;;;;;21.67;12.30;;;-1.00;99.90;;;;;;5055777;28;20495;-78
2021/01/09 02:40:19;;;;;;;19.05;11.98;;;-1.00;99.90;;;;;;5073021;28;20051;-78
2021/01/09 02:42:50;;;;;;;20.88;11.48;;;-1.00;99.90;;;;;;5073683;28;20040;-78
2021/01/09 02:45:21;;;;;;;24.38;12.55;;;-1.00;99.90;;;;;;5056397;28;20124;-78
2021/01/09 02:47:53;;;;;;;22.00;11.63;;;-1.00;99.90;;;;;;5072375;28;20036;-78
2021/01/09 02:50:24;;;;;;;21.35;11.70;;;-1.00;99.90;;;;;;5072060;28;20041;-78
2021/01/09 02:52:55;;;;;;;26.73;12.85;;;-1.00;99.90;;;;;;5056104;28;20341;-78
2021/01/09 02:55:26;;;;;;;24.90;12.85;;;-1.00;99.90;;;;;;5055035;28;20041;-78
2021/01/09 02:57:52;;;;;;;23.70;12.20;;;-1.10;99.90;;;;;;5071075;28;20076;-78
2021/01/09 03:00:24;;;;;;;21.33;13.55;;;-1.10;99.90;;;;;;5056627;28;20131;-78
2021/01/09 03:02:55;;;;;;;26.10;12.27;;;-1.10;99.90;;;;;;5056341;28;20106;-78
2021/01/09 03:05:26;;;;;;;23.08;12.93;;;-1.10;99.90;;;;;;5055757;28;20051;-78
2021/01/09 03:07:57;;;;;;;21.60;12.88;;;-1.10;99.90;;;;;;5071662;28;20045;-78
2021/01/09 03:10:28;;;;;;;24.98;13.35;;;-1.10;99.90;;;;;;5056191;28;20051;-78
2021/01/09 03:13:00;;;;;;;22.65;12.20;;;-1.10;99.90;;;;;;5072271;28;20529;-78
2021/01/09 03:15:31;;;;;;;24.48;12.43;;;-1.10;99.90;;;;;;5056566;28;20044;-78
2021/01/09 03:18:02;;;;;;;21.38;12.18;;;-1.10;99.90;;;;;;5056051;28;20144;-78
2021/01/09 03:20:33;;;;;;;23.15;13.27;;;-1.10;99.90;;;;;;5055999;28;20045;-78
2021/01/09 03:23:05;;;;;;;23.40;11.38;;;-1.10;99.90;;;;;;5056141;28;20070;-78
2021/01/09 03:25:36;;;;;;;22.08;12.23;;;-1.10;99.90;;;;;;5056144;28;20156;-78
2021/01/09 03:28:07;;;;;;;21.85;11.52;;;-1.10;99.90;;;;;;5072214;28;20045;-78
2021/01/09 03:30:38;;;;;;;23.17;12.18;;;-1.10;99.90;;;;;;5055995;28;20059;-78
2021/01/09 03:33:05;;;;;;;21.40;11.80;;;-1.10;99.90;;;;;;5055132;28;20506;-78
2021/01/09 03:35:36;;;;;;;20.35;11.68;;;-1.10;99.90;;;;;;5071980;28;20064;-78
2021/01/09 03:38:07;;;;;;;20.33;12.05;;;-1.10;99.90;;;;;;5071718;28;20051;-78
2021/01/09 03:40:38;;;;;;;23.48;12.75;;;-1.00;99.90;;;;;;5055980;28;20406;-78
2021/01/09 03:43:10;;;;;;;22.73;12.60;;;-1.10;99.90;;;;;;5072755;28;20045;-79
2021/01/09 03:45:41;;;;;;;24.38;13.73;;;-1.10;99.90;;;;;;5055424;28;20044;-79
2021/01/09 03:48:12;;;;;;;21.25;12.55;;;-1.10;99.90;;;;;;5055376;28;20139;-78
2021/01/09 03:50:43;;;;;;;20.10;11.35;;;-1.10;99.90;;;;;;5071334;28;20050;-78
2021/01/09 03:53:16;;;;;;;25.60;11.48;;;-1.10;99.90;;;;;;5071596;28;20162;-78
2021/01/09 03:55:47;;;;;;;23.58;12.95;;;-1.00;99.90;;;;;;5072287;28;20116;-78
2021/01/09 03:58:18;;;;;;;23.75;12.05;;;-1.00;99.90;;;;;;5055085;28;20139;-78
2021/01/09 04:00:50;;;;;;;23.00;12.50;;;-1.00;99.90;;;;;;5055205;28;20055;-78
2021/01/09 04:03:21;;;;;;;22.33;13.05;;;-1.00;99.90;;;;;;5055217;28;20132;-78
2021/01/09 04:05:52;;;;;;;24.73;12.85;;;-1.00;99.90;;;;;;5055038;28;20045;-78
2021/01/09 04:08:23;;;;;;;25.15;13.15;;;-1.00;99.90;;;;;;5054623;28;20041;-78
2021/01/09 04:10:54;;;;;;;24.83;13.35;;;-0.90;99.90;;;;;;5055033;28;20047;-78
2021/01/09 04:13:26;;;;;;;22.83;12.38;;;-0.90;99.90;;;;;;5054830;28;20400;-78
2021/01/09 04:15:57;;;;;;;24.23;13.95;;;-0.90;99.90;;;;;;5055106;28;20136;-78
2021/01/09 04:18:29;;;;;;;24.33;12.45;;;-0.90;99.90;;;;;;5070463;28;20079;-78
2021/01/09 04:21:01;;;;;;;24.73;12.88;;;-1.00;99.90;;;;;;5070768;28;20612;-78
2021/01/09 04:23:27;;;;;;;24.42;13.27;;;-1.00;99.90;;;;;;5054331;28;20139;-78
2021/01/09 04:25:58;;;;;;;26.45;12.98;;;-1.00;99.90;;;;;;5054619;28;20124;-78
2021/01/09 04:28:29;;;;;;;24.23;13.38;;;-1.00;99.90;;;;;;5054452;28;20033;-78
2021/01/09 04:31:01;;;;;;;27.00;12.57;;;-1.00;99.90;;;;;;5070461;28;20041;-77
2021/01/09 04:33:32;;;;;;;25.60;13.18;;;-1.00;99.90;;;;;;5054346;28;20068;-78
2021/01/09 04:36:03;;;;;;;23.20;12.07;;;-1.00;99.90;;;;;;5070961;28;20044;-78
2021/01/09 04:38:34;;;;;;;21.23;11.52;;;-1.00;99.90;;;;;;5070813;28;20499;-78
2021/01/09 04:41:06;;;;;;;22.58;12.55;;;-1.00;99.90;;;;;;5070845;28;20595;-78
2021/01/09 04:43:37;;;;;;;28.42;12.13;;;-1.00;99.90;;;;;;5054190;28;20082;-78
2021/01/09 04:46:10;;;;;;;21.60;11.95;;;-1.00;99.90;;;;;;5054157;28;20057;-78
2021/01/09 04:48:37;;;;;;;21.98;12.35;;;-1.00;99.90;;;;;;5069937;28;20407;-78
2021/01/09 04:51:08;;;;;;;21.42;11.18;;;-1.00;99.90;;;;;;5070358;28;20087;-78
2021/01/09 04:53:41;;;;;;;23.75;12.18;;;-1.00;99.90;;;;;;5054022;28;20521;-78
2021/01/09 04:56:12;;;;;;;22.15;11.82;;;-1.00;99.90;;;;;;5068763;28;20144;-78
2021/01/09 04:58:43;;;;;;;19.75;11.90;;;-1.00;99.90;;;;;;5053975;28;20063;-78
2021/01/09 05:01:14;;;;;;;23.42;11.88;;;-1.00;99.90;;;;;;5070097;28;20102;-78
2021/01/09 05:03:48;;;;;;;22.95;13.20;;;-1.00;99.90;;;;;;5069914;28;20052;-78
2021/01/09 05:06:20;;;;;;;21.70;12.60;;;-1.00;99.90;;;;;;5053485;28;20179;-78
2021/01/09 05:08:51;;;;;;;23.02;12.88;;;-1.00;99.90;;;;;;5053769;28;20051;-78
2021/01/09 05:11:23;;;;;;;22.50;12.07;;;-1.00;99.90;;;;;;5054040;28;20043;-78
2021/01/09 05:13:50;;;;;;;23.98;12.05;;;-1.00;99.90;;;;;;5069801;28;20059;-78
2021/01/09 05:16:21;;;;;;;21.45;12.35;;;-1.00;99.90;;;;;;5070120;28;20044;-78
2021/01/09 05:18:52;;;;;;;20.33;11.93;;;-1.00;99.90;;;;;;5070617;28;20499;-78
2021/01/09 05:21:26;;;;;;;22.60;12.25;;;-1.00;99.90;;;;;;5069721;28;20044;-78
2021/01/09 05:24:00;;;;;;;29.83;12.98;;;-1.00;99.90;;;;;;5053618;28;20609;-78
2021/01/09 05:26:32;;;;;;;23.33;13.27;;;-1.10;99.90;;;;;;5069563;28;20521;-78
2021/01/09 05:29:05;;;;;;;21.80;12.15;;;-1.10;99.90;;;;;;5069405;28;20044;-78
2021/01/09 05:31:36;;;;;;;22.02;12.05;;;-1.10;99.90;;;;;;5069045;28;20045;-78
2021/01/09 05:34:07;;;;;;;20.83;13.60;;;-1.10;99.90;;;;;;5053190;28;20041;-78
2021/01/09 05:36:40;;;;;;;22.40;12.23;;;-1.10;99.90;;;;;;5053576;28;20040;-78
2021/01/09 05:39:11;;;;;;;24.45;12.68;;;-1.10;99.90;;;;;;5069202;28;20029;-78
2021/01/09 05:41:44;;;;;;;20.52;11.88;;;-1.00;99.90;;;;;;5069350;28;20040;-78
2021/01/09 05:44:15;;;;;;;21.25;12.43;;;-1.00;99.90;;;;;;5065437;28;20036;-77
2021/01/09 05:46:46;;;;;;;25.20;12.80;;;-1.00;99.90;;;;;;5048367;28;20103;-79
2021/01/09 05:49:13;;;;;;;21.98;11.35;;;-1.00;99.90;;;;;;5079300;28;20052;-79
2021/01/09 05:51:44;;;;;;;22.52;12.45;;;-1.00;99.90;;;;;;5073214;28;20040;-79
2021/01/09 05:54:15;;;;;;;20.17;11.65;;;-1.00;99.90;;;;;;5068117;28;20060;-78
2021/01/09 05:56:48;;;;;;;22.30;12.60;;;-1.00;99.90;;;;;;5067738;28;20127;-77
2021/01/09 05:59:26;;;;;;;20.65;12.55;;;-1.00;99.90;;;;;;5072950;28;20047;-77
2021/01/09 06:01:59;;;;;;;25.70;13.13;;;-1.00;99.90;;;;;;5078527;28;20115;-77
2021/01/09 06:04:33;;;;;;;22.40;13.18;;;-1.00;99.90;;;;;;5069393;28;20046;-76
2021/01/09 06:07:06;;;;;;;21.20;11.80;;;-1.00;99.90;;;;;;5067195;28;20040;-78
2021/01/09 06:10:15;;;;;;;24.07;13.23;;;-1.00;99.90;;;;;;5071004;28;20130;-79
2021/01/09 06:13:00;;;;;;;21.83;12.65;;;-1.00;99.90;;;;;;5076035;28;20312;-77
2021/01/09 06:15:31;;;;;;;21.50;12.15;;;-0.90;99.90;;;;;;5084793;28;20502;-77
2021/01/09 06:18:03;;;;;;;24.20;12.60;;;-0.90;99.90;;;;;;5074506;28;20044;-78
2021/01/09 06:20:35;;;;;;;21.15;11.82;;;-0.90;99.90;;;;;;5072364;28;20040;-77
2021/01/09 06:23:07;;;;;;;24.02;12.93;;;-0.90;99.90;;;;;;5088573;28;20700;-77
2021/01/09 06:25:40;;;;;;;23.67;13.18;;;-0.90;99.90;;;;;;5081042;28;20032;-79
2021/01/09 06:28:15;;;;;;;24.05;13.40;;;-0.80;99.90;;;;;;5055258;28;20036;-76
2021/01/09 06:30:54;;;;;;;25.88;13.63;;;-0.80;99.90;;;;;;5063646;28;20037;-78
2021/01/09 06:33:31;;;;;;;28.15;14.15;;;-0.80;99.90;;;;;;5065601;28;20122;-77
2021/01/09 06:36:02;;;;;;;25.15;13.90;;;-0.80;99.90;;;;;;5053771;28;20041;-76
2021/01/09 06:38:34;;;;;;;24.40;12.88;;;-0.70;99.90;;;;;;5081146;28;20055;-77
2021/01/09 06:41:10;;;;;;;25.88;13.55;;;-0.70;99.90;;;;;;5057698;28;20051;-77
2021/01/09 06:43:44;;;;;;;24.05;14.52;;;-0.70;99.90;;;;;;5084095;28;20067;-79
2021/01/09 06:46:28;;;;;;;28.55;14.30;;;-0.70;99.90;;;;;;5050636;28;20041;-77
2021/01/09 06:49:00;;;;;;;20.50;12.68;;;-0.70;99.90;;;;;;5047291;28;20037;-77
2021/01/09 06:51:34;;;;;;;21.80;13.00;;;-0.70;99.90;;;;;;5067835;28;20135;-78
2021/01/09 06:54:14;;;;;;;21.58;13.30;;;-0.70;99.90;;;;;;5052534;28;20119;-77
2021/01/09 06:57:02;;;;;;;26.38;13.10;;;-0.70;99.90;;;;;;5051894;28;20438;-77
2021/01/09 06:59:35;;;;;;;21.98;13.05;;;-0.70;99.90;;;;;;5057309;28;20052;-78
2021/01/09 07:02:14;;;;;;;25.35;13.30;;;-0.70;99.90;;;;;;5088146;28;20491;-77
2021/01/09 07:05:00;;;;;;;34.17;17.05;;;-0.70;99.90;;;;;;5031874;28;20143;-76
2021/01/09 07:07:56;;;;;;;31.55;17.52;;;-0.70;99.90;;;;;;5068318;28;20055;-77
2021/01/09 07:10:29;;;;;;;30.00;14.50;;;-0.70;99.90;;;;;;5068376;28;20043;-78
2021/01/09 07:13:06;;;;;;;28.02;16.38;;;-0.70;99.90;;;;;;5067714;28;20144;-77
2021/01/09 07:15:37;;;;;;;24.33;14.65;;;-0.60;99.90;;;;;;5058722;28;20134;-77
2021/01/09 07:18:09;;;;;;;27.75;15.52;;;-0.60;99.90;;;;;;5077813;28;20044;-77
2021/01/09 07:20:49;;;;;;;24.42;15.00;;;-0.60;99.90;;;;;;5054482;28;20037;-77
2021/01/09 07:23:21;;;;;;;35.83;19.25;;;-0.60;99.90;;;;;;5068116;28;20131;-79
2021/01/09 07:25:55;;;;;;;54.80;30.92;;;-0.60;99.90;;;;;;5071752;28;20128;-76
2021/01/09 07:28:26;;;;;;;33.00;19.88;;;-0.60;99.90;;;;;;5059934;28;20453;-78
2021/01/09 07:31:05;;;;;;;51.13;29.10;;;-0.60;99.90;;;;;;5069858;28;20079;-76
2021/01/09 07:33:37;;;;;;;48.95;28.27;;;-0.60;99.90;;;;;;5056445;28;20041;-76
2021/01/09 07:36:12;;;;;;;42.53;23.25;;;-0.60;99.90;;;;;;5063598;28;20522;-77
2021/01/09 07:38:44;;;;;;;35.58;20.33;;;-0.60;99.90;;;;;;5086189;28;20036;-77
2021/01/09 07:41:31;;;;;;;24.30;13.73;;;-0.60;99.90;;;;;;5069837;28;20125;-77
2021/01/09 07:44:20;;;;;;;24.20;13.45;;;-0.60;99.90;;;;;;5066169;28;20036;-77
2021/01/09 07:47:05;;;;;;;22.65;13.93;;;-0.60;99.90;;;;;;5052572;28;20032;-76
2021/01/09 07:49:36;;;;;;;28.23;16.98;;;-0.70;99.90;;;;;;5085469;28;20044;-77
2021/01/09 07:52:08;;;;;;;38.30;22.85;;;-0.60;99.90;;;;;;5058655;28;20044;-76
2021/01/09 07:54:44;;;;;;;25.88;15.05;;;-0.70;99.90;;;;;;5059818;28;20040;-77
2021/01/09 07:57:18;;;;;;;23.48;13.88;;;-0.60;99.90;;;;;;5075056;28;20414;-77
2021/01/09 07:59:54;;;;;;;22.20;13.70;;;-0.60;99.90;;;;;;5073192;28;20106;-76
2021/01/09 08:02:33;;;;;;;27.27;15.10;;;-0.60;99.90;;;;;;5068861;28;20044;-78
2021/01/09 08:05:20;;;;;;;26.17;13.35;;;-0.60;99.90;;;;;;5060140;28;20041;-76
2021/01/09 08:07:55;;;;;;;27.23;14.70;;;-0.50;99.90;;;;;;5065358;28;20071;-79
2021/01/09 08:10:29;;;;;;;25.92;14.13;;;-0.50;99.90;;;;;;5050414;28;20045;-77
2021/01/09 08:13:05;;;;;;;25.00;14.07;;;-0.50;99.90;;;;;;5050345;28;20120;-77
2021/01/09 08:15:34;;;;;;;23.80;13.68;;;-0.50;99.90;;;;;;5050307;28;20175;-78
2021/01/09 08:18:07;;;;;;;30.52;15.20;;;-0.40;99.90;;;;;;5049831;28;20049;-78
2021/01/09 08:20:38;;;;;;;26.52;14.80;;;-0.40;99.90;;;;;;5066403;28;20099;-76
2021/01/09 08:23:09;;;;;;;25.92;14.45;;;-0.30;99.90;;;;;;5050132;28;20041;-79
2021/01/09 08:25:43;;;;;;;32.45;17.77;;;-0.30;99.90;;;;;;5086072;28;20050;-76
2021/01/09 08:28:15;;;;;;;26.42;14.57;;;-0.30;99.90;;;;;;5073928;28;20043;-77
2021/01/09 08:30:46;;;;;;;26.52;14.25;;;-0.20;99.90;;;;;;5090130;28;20040;-77
2021/01/09 08:33:17;;;;;;;22.80;13.73;;;-0.20;99.90;;;;;;5081235;28;20045;-78
2021/01/09 08:35:51;;;;;;;24.40;15.48;;;-0.20;99.90;;;;;;5054053;28;20054;-77
2021/01/09 08:38:28;;;;;;;25.23;14.18;;;-0.10;99.90;;;;;;5069627;28;20052;-78
2021/01/09 08:40:58;;;;;;;23.50;14.38;;;-0.10;99.90;;;;;;5053162;28;20499;-76
2021/01/09 08:43:29;;;;;;;24.67;14.20;;;-0.10;99.90;;;;;;5073331;28;20047;-76
2021/01/09 08:46:01;;;;;;;28.20;16.50;;;-0.10;99.90;;;;;;5073819;28;20133;-77
2021/01/09 08:48:36;;;;;;;26.88;15.75;;;0.00;99.90;;;;;;5073440;28;20063;-76
2021/01/09 08:51:10;;;;;;;26.98;16.52;;;0.00;99.90;;;;;;5089991;28;20046;-77
2021/01/09 08:53:54;;;;;;;30.30;16.83;;;0.00;99.90;;;;;;5089813;28;20046;-77
2021/01/09 08:56:29;;;;;;;26.40;15.88;;;0.00;99.90;;;;;;5075666;28;20134;-79
2021/01/09 08:59:03;;;;;;;25.77;14.25;;;0.00;99.90;;;;;;5074245;28;20043;-79
2021/01/09 09:01:46;;;;;;;25.05;15.02;;;0.00;99.90;;;;;;5074727;28;20139;-79
2021/01/09 09:04:20;;;;;;;23.42;14.63;;;-0.10;99.90;;;;;;5053712;28;20048;-79
2021/01/09 09:06:53;;;;;;;28.42;15.63;;;-0.10;99.90;;;;;;5070590;28;20127;-79
2021/01/09 09:09:22;;;;;;;34.13;18.58;;;0.00;99.90;;;;;;5054580;28;20049;-79
2021/01/09 09:11:50;;;;;;;40.63;20.58;;;0.00;99.90;;;;;;5071399;28;20060;-76
2021/01/09 09:14:21;;;;;;;31.27;19.63;;;0.30;99.90;;;;;;5070526;28;20033;-78
2021/01/09 09:17:08;;;;;;;35.10;18.60;;;0.40;99.90;;;;;;5054184;28;20540;-77
2021/01/09 09:19:38;;;;;;;43.53;24.17;;;0.50;99.90;;;;;;5053951;28;20152;-79
2021/01/09 09:22:09;;;;;;;34.95;19.48;;;0.40;99.90;;;;;;5050399;28;20044;-78
2021/01/09 09:24:43;;;;;;;33.13;18.40;;;0.40;99.90;;;;;;5050263;28;20055;-77
2021/01/09 09:27:23;;;;;;;32.50;18.70;;;0.30;99.90;;;;;;5033479;28;20055;-78
2021/01/09 09:30:01;;;;;;;37.88;19.70;;;0.30;99.90;;;;;;5049927;28;20045;-78
2021/01/09 09:32:27;;;;;;;28.70;17.42;;;0.20;99.90;;;;;;5050105;28;20059;-77
2021/01/09 09:35:27;;;;;;;51.92;27.05;;;0.20;99.90;;;;;;5049744;28;20048;-77
2021/01/09 09:38:00;;;;;;;35.20;20.70;;;0.10;99.90;;;;;;5049357;28;20055;-78
2021/01/09 09:40:28;;;;;;;35.13;19.15;;;0.20;99.90;;;;;;5032990;28;20059;-78
2021/01/09 09:43:17;;;;;;;29.30;16.00;;;0.20;99.90;;;;;;5050630;28;20411;-77
2021/01/09 09:45:56;;;;;;;30.65;16.73;;;0.20;99.90;;;;;;5049822;28;20317;-77
2021/01/09 09:48:29;;;;;;;32.53;16.50;;;0.20;99.90;;;;;;5049668;28;20056;-77
2021/01/09 09:51:08;;;;;;;26.80;15.63;;;0.20;99.90;;;;;;5049712;28;20037;-77
2021/01/09 09:53:35;;;;;;;29.60;17.13;;;0.20;99.90;;;;;;5033043;28;20522;-77
2021/01/09 09:56:23;;;;;;;30.92;17.73;;;0.20;99.90;;;;;;5049483;28;20459;-77
2021/01/09 09:59:04;;;;;;;37.65;19.17;;;0.20;99.90;;;;;;5049369;28;20045;-79
2021/01/09 10:01:36;;;;;;;37.35;21.05;;;0.20;99.90;;;;;;5049500;28;20068;-78
2021/01/09 10:04:11;;;;;;;36.40;21.25;;;0.20;99.90;;;;;;5033664;28;20051;-77
2021/01/09 10:06:42;;;;;;;27.52;16.70;;;0.20;99.90;;;;;;5048143;28;20041;-77
2021/01/09 10:09:17;;;;;;;31.40;17.55;;;0.20;99.90;;;;;;5047530;28;20033;-77
2021/01/09 10:11:44;;;;;;;31.98;18.70;;;0.20;99.90;;;;;;5049425;28;20076;-77
2021/01/09 10:14:16;;;;;;;33.88;20.27;;;0.20;99.90;;;;;;5048970;28;20048;-76
2021/01/09 10:16:47;;;;;;;39.90;20.83;;;0.20;99.90;;;;;;5049295;28;20072;-77
2021/01/09 10:19:19;;;;;;;35.00;20.35;;;0.20;99.90;;;;;;5048750;28;20041;-77
2021/01/09 10:21:50;;;;;;;33.88;18.60;;;0.20;99.90;;;;;;5049481;28;20052;-77
2021/01/09 10:24:21;;;;;;;36.17;19.35;;;0.20;99.90;;;;;;5049886;28;20052;-77
2021/01/09 10:26:52;;;;;;;32.30;17.38;;;0.20;99.90;;;;;;5049605;28;20041;-76
2021/01/09 10:29:23;;;;;;;28.00;17.08;;;0.20;99.90;;;;;;5049016;28;20051;-78
2021/01/09 10:31:49;;;;;;;31.77;18.85;;;0.20;99.90;;;;;;5050184;28;20056;-78
2021/01/09 10:34:21;;;;;;;32.72;18.35;;;0.30;99.90;;;;;;5048715;28;20065;-78
2021/01/09 10:36:52;;;;;;;37.58;19.58;;;0.40;99.90;;;;;;5049449;28;20052;-76
2021/01/09 10:39:23;;;;;;;35.08;20.35;;;0.40;99.90;;;;;;5048962;28;20407;-78
2021/01/09 10:41:55;;;;;;;34.03;19.10;;;0.50;99.90;;;;;;5050727;28;20518;-76
2021/01/09 10:44:26;;;;;;;35.97;20.05;;;0.50;99.90;;;;;;5048710;28;20053;-78
2021/01/09 10:46:57;;;;;;;36.05;18.73;;;0.50;99.90;;;;;;5049125;28;20407;-77
2021/01/09 10:49:28;;;;;;;30.85;19.05;;;0.60;99.90;;;;;;5032988;28;20037;-77
2021/01/09 10:52:00;;;;;;;25.60;16.23;;;0.70;99.90;;;;;;5048685;28;20403;-77
2021/01/09 10:54:31;;;;;;;29.58;16.58;;;0.80;99.90;;;;;;5049712;28;20336;-76
2021/01/09 10:56:57;;;;;;;32.75;19.23;;;0.80;99.90;;;;;;5052445;28;20047;-76
2021/01/09 10:59:28;;;;;;;35.63;20.15;;;0.80;99.90;;;;;;5044380;28;20048;-76
2021/01/09 11:02:03;;;;;;;31.25;18.48;;;0.90;99.90;;;;;;5056638;28;20041;-78
2021/01/09 11:04:34;;;;;;;32.83;17.58;;;0.90;99.90;;;;;;5056029;28;20410;-78
2021/01/09 11:07:00;;;;;;;31.00;18.17;;;0.90;99.90;;;;;;5072092;28;20499;-78
2021/01/09 11:09:31;;;;;;;28.10;16.75;;;1.00;99.90;;;;;;5072221;28;20415;-76
2021/01/09 11:12:03;;;;;;;32.33;19.63;;;1.10;99.90;;;;;;5072208;28;20051;-77
2021/01/09 11:14:34;;;;;;;42.00;22.42;;;1.10;99.90;;;;;;5056347;28;20070;-76
2021/01/09 11:17:06;;;;;;;30.73;15.77;;;1.10;99.90;;;;;;5074008;28;20051;-77
2021/01/09 11:19:37;;;;;;;35.63;19.98;;;1.20;99.90;;;;;;5057498;28;20044;-78
2021/01/09 11:22:03;;;;;;;35.67;20.63;;;1.40;99.90;;;;;;5072947;28;20134;-77
2021/01/09 11:24:34;;;;;;;30.80;16.98;;;1.40;99.90;;;;;;5074664;28;20495;-79
2021/01/09 11:27:06;;;;;;;29.83;16.90;;;1.50;99.90;;;;;;5059479;28;20139;-77
2021/01/09 11:29:37;;;;;;;32.40;17.73;;;1.50;99.90;;;;;;5058064;28;20040;-78
2021/01/09 11:32:09;;;;;;;34.25;20.92;;;1.40;99.90;;;;;;5058098;28;20398;-78
2021/01/09 11:34:35;;;;;;;37.10;20.77;;;1.40;99.90;;;;;;5059069;28;20662;-78
2021/01/09 11:37:06;;;;;;;35.75;21.05;;;1.40;99.90;;;;;;5057639;28;20568;-77
2021/01/09 11:39:32;;;;;;;33.58;17.73;;;1.40;99.90;;;;;;5072858;28;20692;-78
2021/01/09 11:42:06;;;;;;;35.47;20.75;;;1.40;99.90;;;;;;5073615;28;20040;-78
2021/01/09 11:44:32;;;;;;;35.13;20.05;;;1.40;99.90;;;;;;5057373;28;20048;-77
2021/01/09 11:47:03;;;;;;;33.92;20.48;;;1.40;99.90;;;;;;5057354;28;20037;-78
2021/01/09 11:49:34;;;;;;;33.88;20.27;;;1.40;99.90;;;;;;5056697;28;20051;-77
2021/01/09 11:52:06;;;;;;;30.20;18.60;;;1.40;99.90;;;;;;5057196;28;20058;-77
2021/01/09 11:54:37;;;;;;;33.70;18.48;;;1.40;99.90;;;;;;5056361;28;20041;-79
2021/01/09 11:57:03;;;;;;;33.53;19.63;;;1.40;99.90;;;;;;5054424;28;20143;-79
2021/01/09 11:59:30;;;;;;;41.35;21.40;;;1.30;99.90;;;;;;5072152;28;20049;-77
2021/01/09 12:01:56;;;;;;;46.78;24.58;;;1.20;99.90;;;;;;5055823;28;20590;-78
2021/01/09 12:04:22;;;;;;;35.22;19.83;;;1.20;99.90;;;;;;5055549;28;20052;-77
2021/01/09 12:06:57;;;;;;;35.22;19.63;;;1.10;99.90;;;;;;5072382;28;20045;-77
2021/01/09 12:09:28;;;;;;;32.70;20.35;;;1.10;99.90;;;;;;5055488;28;20041;-78
2021/01/09 12:11:55;;;;;;;37.75;20.83;;;1.10;99.90;;;;;;5055331;28;20541;-77
2021/01/09 12:14:27;;;;;;;29.33;16.85;;;1.10;99.90;;;;;;5055891;28;20070;-78
2021/01/09 12:17:01;;;;;;;33.47;17.67;;;1.10;99.90;;;;;;5055995;28;20064;-78
2021/01/09 12:19:32;;;;;;;33.35;18.38;;;1.00;99.90;;;;;;5055734;28;20037;-77
2021/01/09 12:22:04;;;;;;;32.85;18.73;;;1.00;99.90;;;;;;5055574;28;20049;-79
2021/01/09 12:24:35;;;;;;;35.03;19.58;;;1.00;99.90;;;;;;5071540;28;20044;-77
2021/01/09 12:27:06;;;;;;;29.42;17.02;;;1.10;99.90;;;;;;5055706;28;20561;-78
2021/01/09 12:29:37;;;;;;;33.88;18.25;;;1.30;99.90;;;;;;5069527;28;20037;-77
2021/01/09 12:32:04;;;;;;;33.70;19.90;;;1.40;99.90;;;;;;5054855;28;20040;-77
2021/01/09 12:34:35;;;;;;;34.72;21.60;;;1.60;99.90;;;;;;5070547;28;20037;-77
2021/01/09 12:37:01;;;;;;;31.98;19.60;;;1.90;99.90;;;;;;5054119;28;20566;-78
2021/01/09 12:39:33;;;;;;;29.60;18.00;;;2.20;99.90;;;;;;5070392;28;20044;-77
2021/01/09 12:42:09;;;;;;;28.30;17.25;;;2.30;99.90;;;;;;5054773;28;20540;-78
2021/01/09 12:44:35;;;;;;;27.10;17.08;;;2.50;99.90;;;;;;5070991;28;20052;-77
2021/01/09 12:47:08;;;;;;;24.90;14.77;;;2.60;99.90;;;;;;5054246;28;20040;-78
2021/01/09 12:49:39;;;;;;;25.83;15.27;;;2.70;99.90;;;;;;5053683;28;20044;-77
2021/01/09 12:52:10;;;;;;;18.92;11.23;;;2.70;99.90;;;;;;5053692;28;20056;-79
2021/01/09 12:54:41;;;;;;;21.25;13.60;;;2.60;99.90;;;;;;5070975;28;20055;-77
2021/01/09 12:57:13;;;;;;;21.05;14.23;;;2.50;99.90;;;;;;5053755;28;20047;-79